Time;durP1;ratioP1;P1;durP2;ratioP2;P2;SDS_P1;SDS_P2;PMS_P1;PMS_P2;Temp;Humidity;BMP_temperature;BMP_pressure;BME280_temperature;BME280_humidity;BME280_pressure;Samples;Min_cycle;Max_cycle;Signal;HPM_P1;HPM_P2
2022/07/04 00:01:04;;;;;;;1.15;0.50;;;22.00;63.00;;;;;;5121594;27;43481;-60
2022/07/04 00:03:31;;;;;;;1.55;0.70;;;22.00;63.00;;;;;;5121710;27;43412;-60
2022/07/04 00:05:59;;;;;;;0.70;0.60;;;22.00;63.00;;;;;;5121206;27;43476;-60
2022/07/04 00:08:26;;;;;;;1.10;0.50;;;21.90;63.00;;;;;;5121129;27;43834;-60
2022/07/04 00:10:53;;;;;;;0.57;0.50;;;21.90;62.90;;;;;;5121724;27;43496;-60
2022/07/04 00:13:21;;;;;;;0.70;0.50;;;21.90;63.00;;;;;;5121295;27;43432;-60
2022/07/04 00:15:48;;;;;;;0.75;0.70;;;21.90;62.90;;;;;;5109590;27;43545;-60
2022/07/04 00:18:15;;;;;;;1.80;0.60;;;21.90;63.00;;;;;;5118262;27;44783;-60
2022/07/04 00:20:42;;;;;;;0.77;0.50;;;21.90;63.00;;;;;;5121326;27;43476;-60
2022/07/04 00:23:10;;;;;;;1.00;0.50;;;21.90;63.00;;;;;;5121507;27;43501;-60
2022/07/04 00:25:37;;;;;;;0.75;0.60;;;21.90;63.00;;;;;;5121210;27;43549;-60
2022/07/04 00:28:04;;;;;;;1.15;0.63;;;21.90;63.00;;;;;;5120155;27;44012;-60
2022/07/04 00:30:32;;;;;;;0.38;0.38;;;21.90;63.00;;;;;;5119724;27;43728;-60
2022/07/04 00:32:59;;;;;;;0.68;0.68;;;21.90;63.00;;;;;;5120718;27;43381;-60
2022/07/04 00:35:27;;;;;;;0.55;0.55;;;21.90;62.90;;;;;;5121911;27;43782;-60
2022/07/04 00:37:54;;;;;;;0.85;0.52;;;21.90;63.00;;;;;;5118957;27;45027;-60
2022/07/04 00:40:21;;;;;;;0.47;0.47;;;21.90;63.00;;;;;;5120495;27;43514;-60
2022/07/04 00:42:49;;;;;;;0.63;0.63;;;21.80;62.90;;;;;;5113122;27;43982;-60
2022/07/04 00:45:16;;;;;;;0.75;0.60;;;21.80;63.00;;;;;;5122636;27;43508;-60
2022/07/04 00:47:43;;;;;;;0.80;0.80;;;21.80;63.00;;;;;;5118353;27;45032;-60
2022/07/04 00:50:10;;;;;;;0.50;0.40;;;21.80;63.00;;;;;;5129329;27;43742;-60
2022/07/04 00:52:39;;;;;;;0.50;0.50;;;21.80;63.00;;;;;;5123897;27;43455;-60
2022/07/04 00:55:08;;;;;;;0.85;0.63;;;21.80;63.00;;;;;;5125018;27;43707;-60
2022/07/04 00:57:35;;;;;;;0.52;0.50;;;21.80;63.00;;;;;;5124699;27;44982;-60
2022/07/04 01:00:03;;;;;;;0.43;0.43;;;21.80;63.00;;;;;;5122922;27;43982;-60
2022/07/04 01:02:31;;;;;;;0.47;0.40;;;21.80;63.00;;;;;;5123691;27;43475;-60
2022/07/04 01:04:58;;;;;;;0.50;0.50;;;21.70;62.90;;;;;;5124451;27;43579;-60
2022/07/04 01:07:26;;;;;;;0.57;0.50;;;21.80;63.00;;;;;;5123513;27;44980;-60
2022/07/04 01:09:53;;;;;;;0.50;0.50;;;21.80;63.00;;;;;;5124429;27;43957;-60
2022/07/04 01:12:28;;;;;;;0.75;0.50;;;21.70;62.90;;;;;;5125026;27;43421;-60
2022/07/04 01:14:56;;;;;;;1.58;0.68;;;21.70;62.90;;;;;;5123525;27;43509;-60
2022/07/04 01:17:23;;;;;;;0.80;0.45;;;21.70;62.90;;;;;;5123106;27;45054;-60
2022/07/04 01:19:51;;;;;;;2.05;0.63;;;21.70;63.00;;;;;;5125254;27;44346;-60
2022/07/04 01:22:22;;;;;;;0.60;0.60;;;21.70;63.00;;;;;;5125440;27;43396;-60
2022/07/04 01:24:50;;;;;;;0.70;0.55;;;21.70;63.00;;;;;;5123453;27;43517;-60
2022/07/04 01:27:20;;;;;;;0.60;0.60;;;21.70;63.00;;;;;;5125255;27;45021;-60
2022/07/04 01:29:48;;;;;;;0.55;0.55;;;21.70;63.00;;;;;;5113858;27;43996;-60
2022/07/04 01:32:17;;;;;;;0.63;0.63;;;21.70;63.00;;;;;;5124370;27;43468;-59
2022/07/04 01:34:44;;;;;;;0.40;0.40;;;21.70;62.90;;;;;;5122751;27;43430;-60
2022/07/04 01:37:12;;;;;;;0.55;0.55;;;21.60;62.90;;;;;;5122442;27;45048;-60
2022/07/04 01:39:39;;;;;;;0.73;0.70;;;21.70;62.90;;;;;;5122769;27;43424;-60
2022/07/04 01:42:07;;;;;;;0.60;0.60;;;21.70;62.90;;;;;;5122356;27;43572;-60
2022/07/04 01:44:34;;;;;;;0.60;0.60;;;21.70;63.00;;;;;;5123102;27;43472;-60
2022/07/04 01:47:02;;;;;;;0.50;0.50;;;21.60;62.90;;;;;;5122948;27;43776;-60
2022/07/04 01:49:29;;;;;;;1.27;0.60;;;21.60;62.90;;;;;;5123775;27;44362;-60
2022/07/04 01:51:57;;;;;;;0.40;0.40;;;21.60;62.90;;;;;;5122673;27;43475;-60
2022/07/04 01:54:26;;;;;;;0.50;0.50;;;21.60;62.90;;;;;;5122832;27;43435;-60
2022/07/04 01:56:53;;;;;;;0.73;0.70;;;21.60;63.00;;;;;;5122843;27;43929;-60
2022/07/04 02:01:29;;;;;;;0.38;0.38;;;21.60;62.90;;;;;;5133885;27;43572;-60
2022/07/04 02:02:08;;;;;;;0.70;0.70;;;21.60;62.90;;;;;;5122378;27;43516;-60
2022/07/04 02:04:37;;;;;;;0.47;0.47;;;21.60;63.00;;;;;;5122258;27;43563;-60
2022/07/04 02:07:05;;;;;;;0.30;0.30;;;21.60;63.00;;;;;;5124703;27;45001;-60
2022/07/04 02:09:32;;;;;;;0.82;0.70;;;21.60;62.90;;;;;;5123368;27;43830;-60
2022/07/04 02:14:46;;;;;;;1.75;0.70;;;21.50;62.90;;;;;;5119330;27;44004;-60
2022/07/04 02:17:13;;;;;;;1.55;0.55;;;21.50;62.90;;;;;;5123691;27;44989;-60
2022/07/04 02:19:42;;;;;;;1.45;0.70;;;21.50;62.90;;;;;;5122595;27;44010;-60
2022/07/04 02:22:09;;;;;;;0.50;0.50;;;21.50;63.00;;;;;;5121274;27;43421;-60
2022/07/04 02:24:37;;;;;;;0.93;0.70;;;21.50;63.00;;;;;;5123519;27;43555;-60
2022/07/04 02:27:04;;;;;;;0.60;0.60;;;21.50;63.00;;;;;;5122983;27;44009;-60
2022/07/04 02:29:31;;;;;;;1.40;0.80;;;21.50;62.90;;;;;;5122718;27;43487;-60
2022/07/04 02:31:59;;;;;;;0.60;0.60;;;21.50;63.00;;;;;;5120474;27;43495;-59
2022/07/04 02:34:26;;;;;;;1.02;0.60;;;21.50;62.90;;;;;;5123497;27;43504;-60
2022/07/04 02:36:54;;;;;;;0.88;0.45;;;21.50;62.90;;;;;;5123856;27;45166;-60
2022/07/04 02:39:21;;;;;;;0.50;0.50;;;21.50;62.90;;;;;;5122573;27;43806;-60
2022/07/04 02:41:48;;;;;;;0.60;0.60;;;21.50;63.00;;;;;;5119989;27;43397;-59
2022/07/04 02:44:22;;;;;;;0.40;0.40;;;21.50;63.00;;;;;;5124381;27;43589;-60
2022/07/04 02:46:49;;;;;;;1.08;0.55;;;21.50;63.00;;;;;;5122052;27;45139;-60
2022/07/04 02:49:17;;;;;;;0.60;0.60;;;21.50;62.90;;;;;;5124346;27;43806;-60
2022/07/04 02:51:44;;;;;;;0.70;0.70;;;21.40;62.90;;;;;;5118664;27;43553;-60
2022/07/04 02:54:12;;;;;;;0.88;0.55;;;21.50;63.00;;;;;;5123569;27;43511;-60
2022/07/04 02:56:39;;;;;;;0.60;0.60;;;21.40;62.90;;;;;;5121187;27;44014;-60
2022/07/04 02:59:06;;;;;;;0.40;0.40;;;21.50;63.00;;;;;;5123716;27;43972;-60
2022/07/04 03:01:34;;;;;;;0.60;0.60;;;21.40;62.90;;;;;;5119451;27;43452;-60
2022/07/04 03:04:03;;;;;;;0.50;0.50;;;21.40;62.90;;;;;;5122762;27;43476;-60
2022/07/04 03:06:30;;;;;;;0.60;0.60;;;21.40;62.90;;;;;;5123868;27;44719;-60
2022/07/04 03:08:58;;;;;;;0.50;0.50;;;21.40;62.90;;;;;;5122366;27;43998;-60
2022/07/04 03:11:25;;;;;;;0.40;0.40;;;21.40;62.90;;;;;;5119178;27;43468;-59
2022/07/04 03:13:52;;;;;;;0.82;0.60;;;21.40;62.90;;;;;;5122202;27;43472;-60
2022/07/04 03:16:20;;;;;;;0.55;0.50;;;21.40;63.00;;;;;;5122240;27;44971;-60
2022/07/04 03:18:47;;;;;;;0.50;0.50;;;21.40;63.00;;;;;;5121623;27;43452;-60
2022/07/04 03:21:15;;;;;;;0.50;0.50;;;21.40;63.00;;;;;;5119521;27;43496;-60
2022/07/04 03:23:42;;;;;;;0.60;0.60;;;21.40;63.00;;;;;;5122105;27;43533;-60
2022/07/04 03:26:09;;;;;;;0.70;0.70;;;21.40;63.00;;;;;;5122379;27;44046;-60
2022/07/04 03:28:37;;;;;;;0.60;0.60;;;21.30;62.90;;;;;;5121828;27;44124;-60
2022/07/04 03:31:04;;;;;;;0.50;0.50;;;21.30;63.00;;;;;;5119750;27;43468;-60
2022/07/04 03:33:31;;;;;;;0.43;0.43;;;21.40;63.00;;;;;;5121623;27;43490;-60
2022/07/04 03:35:59;;;;;;;0.60;0.60;;;21.30;62.90;;;;;;5121767;27;45097;-60
2022/07/04 03:38:26;;;;;;;1.05;0.70;;;21.30;62.90;;;;;;5121427;27;44208;-60
2022/07/04 03:40:53;;;;;;;0.70;0.55;;;21.30;63.00;;;;;;5121550;27;43654;-60
2022/07/04 03:43:20;;;;;;;0.40;0.40;;;21.30;63.00;;;;;;5121191;27;43614;-60
2022/07/04 03:45:48;;;;;;;0.60;0.60;;;21.30;63.00;;;;;;5121806;27;45116;-60
2022/07/04 03:48:15;;;;;;;0.50;0.50;;;21.30;63.00;;;;;;5122259;27;43425;-60
2022/07/04 03:50:42;;;;;;;0.47;0.45;;;21.30;63.00;;;;;;5118671;27;43468;-59
2022/07/04 03:53:10;;;;;;;0.57;0.55;;;21.30;63.00;;;;;;5121947;27;43595;-60
2022/07/04 03:55:37;;;;;;;0.60;0.60;;;21.30;63.00;;;;;;5121501;27;43907;-60
2022/07/04 03:58:05;;;;;;;0.82;0.65;;;21.30;63.00;;;;;;5129394;27;43458;-60
2022/07/04 04:00:33;;;;;;;1.17;0.52;;;21.30;63.00;;;;;;5120400;27;43468;-60
2022/07/04 04:03:00;;;;;;;0.77;0.60;;;21.30;63.00;;;;;;5121588;27;43468;-59
2022/07/04 04:05:30;;;;;;;1.52;0.50;;;21.30;63.00;;;;;;5120508;27;45103;-60
2022/07/04 04:08:00;;;;;;;0.63;0.63;;;21.30;63.10;;;;;;5122552;27;43472;-60
2022/07/04 04:10:29;;;;;;;0.45;0.45;;;21.20;63.00;;;;;;5119592;27;43522;-60
2022/07/04 04:12:57;;;;;;;0.52;0.52;;;21.20;63.00;;;;;;5120940;27;43629;-60
2022/07/04 04:15:24;;;;;;;0.60;0.60;;;21.20;63.00;;;;;;5120024;27;45195;-60
2022/07/04 04:17:51;;;;;;;0.45;0.45;;;21.20;63.00;;;;;;5119904;27;43835;-60
2022/07/04 04:20:19;;;;;;;0.60;0.60;;;21.20;63.00;;;;;;5120299;27;43464;-60
2022/07/04 04:22:47;;;;;;;0.40;0.40;;;21.20;63.00;;;;;;5120347;27;43600;-60
2022/07/04 04:25:14;;;;;;;0.98;0.57;;;21.20;63.00;;;;;;5121204;27;45009;-60
2022/07/04 04:27:42;;;;;;;1.08;0.50;;;21.20;63.00;;;;;;5122080;27;43440;-60
2022/07/04 04:30:10;;;;;;;1.02;0.80;;;21.20;63.00;;;;;;5120273;27;44008;-60
2022/07/04 04:32:37;;;;;;;0.70;0.70;;;21.20;63.00;;;;;;5120668;27;43568;-60
2022/07/04 04:35:04;;;;;;;0.60;0.60;;;21.20;63.00;;;;;;5121223;27;44988;-60
2022/07/04 04:37:32;;;;;;;0.60;0.60;;;21.20;63.10;;;;;;5121602;27;43517;-60
2022/07/04 04:39:59;;;;;;;0.65;0.65;;;21.20;63.10;;;;;;5119735;27;43584;-60
2022/07/04 04:42:26;;;;;;;0.40;0.40;;;21.20;63.70;;;;;;5121137;27;43446;-60
2022/07/04 04:44:54;;;;;;;0.60;0.60;;;21.20;63.10;;;;;;5122635;27;44792;-60
2022/07/04 04:47:21;;;;;;;0.57;0.57;;;21.20;63.10;;;;;;5120485;27;43931;-60
2022/07/04 04:49:48;;;;;;;0.52;0.52;;;21.20;63.10;;;;;;5119717;27;43421;-60
2022/07/04 04:52:16;;;;;;;0.47;0.47;;;21.20;63.10;;;;;;5120878;27;43477;-60
2022/07/04 04:54:43;;;;;;;1.20;0.73;;;21.20;63.10;;;;;;5121136;27;45127;-60
2022/07/04 04:57:11;;;;;;;0.52;0.52;;;21.20;63.10;;;;;;5121170;27;43489;-60
2022/07/04 04:59:38;;;;;;;1.48;0.65;;;21.20;63.00;;;;;;5119731;27;43500;-60
2022/07/04 05:02:06;;;;;;;0.40;0.40;;;21.20;63.00;;;;;;5120571;27;43485;-60
2022/07/04 05:04:33;;;;;;;0.52;0.50;;;21.20;63.10;;;;;;5121861;27;44840;-60
2022/07/04 05:07:00;;;;;;;0.85;0.50;;;21.10;63.00;;;;;;5119043;27;44091;-60
2022/07/04 05:09:28;;;;;;;0.70;0.70;;;21.20;63.10;;;;;;5119501;27;43464;-60
2022/07/04 05:11:55;;;;;;;0.65;0.65;;;21.10;63.00;;;;;;5120269;27;43635;-60
2022/07/04 05:14:22;;;;;;;0.70;0.70;;;21.10;63.00;;;;;;5120685;27;43976;-60
2022/07/04 05:16:49;;;;;;;1.13;0.80;;;21.20;63.10;;;;;;5120024;27;43500;-61
2022/07/04 05:19:17;;;;;;;1.08;0.63;;;21.10;63.20;;;;;;5108888;27;43478;-60
2022/07/04 05:21:44;;;;;;;0.93;0.70;;;21.10;63.20;;;;;;5109606;27;43671;-60
2022/07/04 05:24:12;;;;;;;0.80;0.65;;;21.10;63.20;;;;;;5120694;27;44107;-61
2022/07/04 05:26:39;;;;;;;0.60;0.60;;;21.10;63.30;;;;;;5120284;27;43982;-60
2022/07/04 05:29:06;;;;;;;1.05;0.60;;;21.10;63.30;;;;;;5118845;27;43484;-61
2022/07/04 05:31:34;;;;;;;0.57;0.57;;;21.10;63.30;;;;;;5120579;27;44221;-60
2022/07/04 05:34:01;;;;;;;0.50;0.50;;;21.10;63.30;;;;;;5120440;27;43792;-60
2022/07/04 05:36:29;;;;;;;1.05;0.60;;;21.10;63.30;;;;;;5122412;27;44231;-60
2022/07/04 05:38:57;;;;;;;0.82;0.75;;;21.10;64.00;;;;;;5122573;27;43578;-60
2022/07/04 05:41:25;;;;;;;0.60;0.60;;;21.10;63.40;;;;;;5124795;27;43609;-59
2022/07/04 05:43:53;;;;;;;0.60;0.60;;;21.10;63.40;;;;;;5123412;27;45015;-61
2022/07/04 05:46:25;;;;;;;1.95;0.60;;;21.10;63.40;;;;;;5124567;27;43664;-61
2022/07/04 05:48:53;;;;;;;0.77;0.77;;;21.10;63.40;;;;;;5122857;27;43484;-61
2022/07/04 05:51:20;;;;;;;0.70;0.70;;;21.10;63.40;;;;;;5125341;27;44125;-61
2022/07/04 05:53:48;;;;;;;0.60;0.60;;;21.00;63.40;;;;;;5123214;27;46200;-60
2022/07/04 05:56:15;;;;;;;0.68;0.60;;;21.10;63.30;;;;;;5122544;27;43474;-60
2022/07/04 05:58:43;;;;;;;0.65;0.65;;;21.10;63.30;;;;;;5132273;27;43434;-60
2022/07/04 06:01:10;;;;;;;0.70;0.70;;;21.10;63.30;;;;;;5123800;27;43607;-60
2022/07/04 06:03:38;;;;;;;1.08;0.98;;;21.10;63.90;;;;;;5123036;27;45008;-60
2022/07/04 06:06:05;;;;;;;0.75;0.70;;;21.10;63.30;;;;;;5123462;27;43440;-60
2022/07/04 06:08:33;;;;;;;0.95;0.65;;;21.10;63.30;;;;;;5123819;27;43448;-60
2022/07/04 06:11:00;;;;;;;0.70;0.70;;;21.10;63.30;;;;;;5122985;27;43601;-60
2022/07/04 06:13:29;;;;;;;1.00;0.70;;;21.10;63.30;;;;;;5121285;27;44229;-60
2022/07/04 06:15:56;;;;;;;0.70;0.68;;;21.10;63.30;;;;;;5121873;27;43481;-60
2022/07/04 06:18:24;;;;;;;0.93;0.93;;;21.10;63.30;;;;;;5123091;27;43519;-60
2022/07/04 06:20:51;;;;;;;1.05;0.95;;;21.10;63.20;;;;;;5121478;27;43603;-61
2022/07/04 06:23:18;;;;;;;1.00;0.80;;;21.10;63.20;;;;;;5123086;27;45051;-60
2022/07/04 06:25:46;;;;;;;1.02;0.80;;;21.10;63.30;;;;;;5121999;27;43449;-60
2022/07/04 06:28:13;;;;;;;0.80;0.80;;;21.10;63.30;;;;;;5120729;27;43453;-60
2022/07/04 06:31:00;;;;;;;0.70;0.70;;;21.10;63.30;;;;;;5123318;27;43515;-60
2022/07/04 06:33:27;;;;;;;0.75;0.75;;;21.10;63.30;;;;;;5123633;27;45484;-60
2022/07/04 06:35:55;;;;;;;0.85;0.85;;;21.10;63.30;;;;;;5122914;27;43894;-60
2022/07/04 06:38:27;;;;;;;0.90;0.70;;;21.10;63.30;;;;;;5122992;27;43459;-60
2022/07/04 06:40:57;;;;;;;1.10;0.60;;;21.10;63.30;;;;;;5123331;27;43496;-60
2022/07/04 06:43:25;;;;;;;0.85;0.80;;;21.10;63.20;;;;;;5123975;27;45031;-60
2022/07/04 06:45:53;;;;;;;0.73;0.73;;;21.20;63.30;;;;;;5122239;27;44027;-60
2022/07/04 06:48:21;;;;;;;1.00;0.60;;;21.20;63.30;;;;;;5123587;27;43384;-60
2022/07/04 06:50:48;;;;;;;0.80;0.80;;;21.20;63.30;;;;;;5123117;27;43616;-60
2022/07/04 06:53:16;;;;;;;0.88;0.88;;;21.20;63.30;;;;;;5120067;27;44882;-59
2022/07/04 06:55:43;;;;;;;0.60;0.60;;;21.20;63.30;;;;;;5121888;27;43504;-60
2022/07/04 06:58:12;;;;;;;0.93;0.90;;;21.10;63.40;;;;;;5123877;27;44066;-60
2022/07/04 07:00:41;;;;;;;1.55;0.90;;;21.10;63.40;;;;;;5121904;27;43586;-61
2022/07/04 07:03:09;;;;;;;0.70;0.70;;;21.10;63.40;;;;;;5121573;27;44701;-60
2022/07/04 07:05:36;;;;;;;1.85;0.70;;;21.20;63.40;;;;;;5122601;27;43444;-60
2022/07/04 07:08:24;;;;;;;0.70;0.70;;;21.20;63.30;;;;;;5121839;27;43418;-59
2022/07/04 07:10:51;;;;;;;0.70;0.70;;;21.20;63.30;;;;;;5121785;27;43519;-59
2022/07/04 07:13:19;;;;;;;2.33;0.75;;;21.20;63.30;;;;;;5119289;27;44136;-59
2022/07/04 07:15:46;;;;;;;0.88;0.68;;;21.20;63.40;;;;;;5122784;27;43421;-59
2022/07/04 07:18:13;;;;;;;1.02;0.90;;;21.20;63.40;;;;;;5122606;27;43455;-60
2022/07/04 07:20:40;;;;;;;1.27;0.88;;;21.20;63.40;;;;;;5121936;27;43592;-59
2022/07/04 07:23:08;;;;;;;1.75;0.60;;;21.20;63.30;;;;;;5119032;27;45318;-59
2022/07/04 07:25:35;;;;;;;0.60;0.60;;;21.10;63.30;;;;;;5122919;27;43964;-60
2022/07/04 07:28:02;;;;;;;0.70;0.70;;;21.20;63.30;;;;;;5122915;27;43457;-59
2022/07/04 07:30:30;;;;;;;0.73;0.73;;;21.20;63.40;;;;;;5120244;27;44023;-59
2022/07/04 07:32:57;;;;;;;0.68;0.68;;;21.20;63.30;;;;;;5121135;27;44134;-59
2022/07/04 07:35:24;;;;;;;1.13;0.60;;;21.20;63.30;;;;;;5121772;27;43455;-59
2022/07/04 07:37:52;;;;;;;1.67;0.88;;;21.20;63.20;;;;;;5121108;27;43378;-59
2022/07/04 07:40:19;;;;;;;0.73;0.73;;;21.20;63.20;;;;;;5122421;27;43551;-59
2022/07/04 07:42:46;;;;;;;0.90;0.75;;;21.20;63.20;;;;;;5119651;27;43806;-59
2022/07/04 07:45:14;;;;;;;0.77;0.77;;;21.30;63.30;;;;;;5113091;27;43541;-59
2022/07/04 07:47:41;;;;;;;1.15;0.88;;;21.30;63.30;;;;;;5113271;27;43519;-59
2022/07/04 07:50:09;;;;;;;0.82;0.75;;;21.30;63.20;;;;;;5120954;27;44532;-59
2022/07/04 07:52:36;;;;;;;0.73;0.73;;;21.20;63.10;;;;;;5118399;27;44048;-59
2022/07/04 07:55:04;;;;;;;0.70;0.70;;;21.30;63.20;;;;;;5121681;27;43528;-59
2022/07/04 07:57:32;;;;;;;1.20;0.63;;;21.30;63.10;;;;;;5124925;27;43465;-60
2022/07/04 07:59:59;;;;;;;1.60;0.50;;;21.30;63.20;;;;;;5126532;27;43519;-60
2022/07/04 08:05:13;;;;;;;0.80;0.80;;;21.30;63.20;;;;;;5121334;27;43471;-59
2022/07/04 08:07:40;;;;;;;0.60;0.60;;;21.30;63.10;;;;;;5123415;27;43481;-59
2022/07/04 08:10:09;;;;;;;0.60;0.60;;;21.30;63.10;;;;;;5121871;27;43462;-60
2022/07/04 08:12:36;;;;;;;0.70;0.70;;;21.30;63.10;;;;;;5112481;27;44822;-59
2022/07/04 08:15:04;;;;;;;1.40;0.88;;;21.30;63.10;;;;;;5121902;27;43986;-59
2022/07/04 08:17:34;;;;;;;0.57;0.55;;;21.30;63.10;;;;;;5121444;27;43366;-60
2022/07/04 08:20:05;;;;;;;1.65;0.82;;;21.30;63.10;;;;;;5119167;27;43666;-59
2022/07/04 08:22:33;;;;;;;0.70;0.70;;;21.30;63.10;;;;;;5120760;27;44071;-60
2022/07/04 08:25:00;;;;;;;0.80;0.80;;;21.30;63.10;;;;;;5120402;27;43985;-59
2022/07/04 08:27:28;;;;;;;0.80;0.77;;;21.30;63.80;;;;;;5120939;27;43463;-59
2022/07/04 08:30:00;;;;;;;0.90;0.68;;;21.30;63.00;;;;;;5118660;27;43468;-59
2022/07/04 08:32:28;;;;;;;0.98;0.80;;;21.30;63.00;;;;;;5120394;27;44054;-59
2022/07/04 08:34:55;;;;;;;0.57;0.57;;;21.40;63.10;;;;;;5120705;27;43671;-59
2022/07/04 08:37:23;;;;;;;0.90;0.85;;;21.40;63.10;;;;;;5119539;27;43495;-59
2022/07/04 08:39:50;;;;;;;0.60;0.60;;;21.40;63.00;;;;;;5117634;27;44062;-59
2022/07/04 08:42:19;;;;;;;0.80;0.80;;;21.40;63.00;;;;;;5120674;27;44955;-59
2022/07/04 08:44:52;;;;;;;1.02;0.68;;;21.40;63.00;;;;;;5120629;27;43982;-60
2022/07/04 08:47:24;;;;;;;0.70;0.70;;;21.40;63.10;;;;;;5120815;27;43458;-59
2022/07/04 08:50:02;;;;;;;1.75;0.70;;;21.40;63.00;;;;;;5120369;27;43511;-59
2022/07/04 08:52:41;;;;;;;0.70;0.70;;;21.40;62.90;;;;;;5120126;27;45132;-60
2022/07/04 09:00:45;;;;;;;0.93;0.70;;;21.50;63.10;;;;;;5120564;27;43613;-60
2022/07/04 09:03:13;;;;;;;1.05;0.70;;;21.40;63.00;;;;;;5120769;27;44707;-59
2022/07/04 09:05:40;;;;;;;0.80;0.80;;;21.50;63.00;;;;;;5120706;27;43528;-60
2022/07/04 09:08:08;;;;;;;0.68;0.65;;;21.50;63.10;;;;;;5121187;27;43435;-59
2022/07/04 09:10:35;;;;;;;0.80;0.80;;;21.50;62.90;;;;;;5122064;27;43681;-60
2022/07/04 09:13:05;;;;;;;0.68;0.60;;;21.50;62.90;;;;;;5122093;27;44034;-59
2022/07/04 09:15:40;;;;;;;0.80;0.80;;;21.50;63.00;;;;;;5123911;27;44160;-60
2022/07/04 09:18:29;;;;;;;0.70;0.70;;;21.50;62.90;;;;;;5125443;27;43497;-60
2022/07/04 09:21:04;;;;;;;0.77;0.77;;;21.50;63.00;;;;;;5118152;27;43537;-59
2022/07/04 09:23:38;;;;;;;0.70;0.70;;;21.50;63.00;;;;;;5121224;27;45139;-60
2022/07/04 09:26:13;;;;;;;0.60;0.60;;;21.50;63.00;;;;;;5124330;27;43491;-60
2022/07/04 09:28:52;;;;;;;0.70;0.70;;;21.50;63.00;;;;;;5124481;27;43431;-60
2022/07/04 09:31:22;;;;;;;0.75;0.50;;;21.50;63.10;;;;;;5123882;27;43878;-59
2022/07/04 09:33:54;;;;;;;1.20;0.70;;;21.60;63.20;;;;;;5121142;27;43782;-59
2022/07/04 09:36:24;;;;;;;0.80;0.80;;;21.50;63.00;;;;;;5123156;27;43867;-59
2022/07/04 09:39:06;;;;;;;0.60;0.60;;;21.50;63.00;;;;;;5122564;27;43484;-60
2022/07/04 09:41:52;;;;;;;1.23;1.00;;;21.60;63.00;;;;;;5122256;27;43516;-59
2022/07/04 09:44:21;;;;;;;0.95;0.73;;;21.60;63.10;;;;;;5122001;27;44225;-60
2022/07/04 09:46:48;;;;;;;0.70;0.63;;;21.60;63.00;;;;;;5122803;27;43533;-59
2022/07/04 09:49:16;;;;;;;1.17;0.90;;;21.60;63.00;;;;;;5122894;27;43441;-60
2022/07/04 09:51:46;;;;;;;1.48;0.80;;;21.60;63.00;;;;;;5123214;27;43599;-59
2022/07/04 09:54:21;;;;;;;1.65;0.80;;;21.60;63.00;;;;;;5122279;27;43810;-60
2022/07/04 09:56:51;;;;;;;1.45;0.90;;;21.60;63.00;;;;;;5123038;27;43944;-59
2022/07/04 09:59:19;;;;;;;1.42;1.10;;;21.60;63.00;;;;;;5129114;27;43605;-60
2022/07/04 10:01:48;;;;;;;1.17;1.02;;;21.60;63.00;;;;;;5119701;27;43622;-60
2022/07/04 10:04:16;;;;;;;1.73;1.00;;;21.60;63.10;;;;;;5103282;27;43813;-60
2022/07/04 10:06:45;;;;;;;2.63;0.98;;;21.60;63.10;;;;;;5122449;27;43438;-61
2022/07/04 10:09:18;;;;;;;1.40;1.10;;;21.70;63.10;;;;;;5122204;27;43470;-60
2022/07/04 10:11:47;;;;;;;1.25;0.80;;;21.70;63.00;;;;;;5118746;27;43395;-60
2022/07/04 10:14:16;;;;;;;1.10;1.00;;;21.70;63.10;;;;;;5120945;27;44488;-60
2022/07/04 10:16:44;;;;;;;0.93;0.90;;;21.70;63.30;;;;;;5124397;27;43496;-60
2022/07/04 10:19:12;;;;;;;1.20;1.02;;;21.70;63.20;;;;;;5123561;27;43387;-60
2022/07/04 10:21:40;;;;;;;1.00;0.90;;;21.80;63.30;;;;;;5122022;27;43619;-59
2022/07/04 10:24:08;;;;;;;1.90;1.00;;;21.80;63.20;;;;;;5120818;27;44710;-60
2022/07/04 10:26:35;;;;;;;0.82;0.82;;;21.80;63.20;;;;;;5123117;27;43476;-59
2022/07/04 10:29:03;;;;;;;1.42;1.05;;;21.80;63.20;;;;;;5123549;27;43362;-60
2022/07/04 10:31:33;;;;;;;1.98;0.90;;;21.80;63.80;;;;;;5123951;27;43639;-59
2022/07/04 10:34:02;;;;;;;2.28;1.30;;;21.80;63.10;;;;;;5121741;27;44924;-60
2022/07/04 10:36:30;;;;;;;1.67;1.20;;;21.80;63.20;;;;;;5122178;27;43476;-60
2022/07/04 10:39:04;;;;;;;1.88;1.20;;;21.90;63.30;;;;;;5118002;27;43499;-60
2022/07/04 10:41:32;;;;;;;1.30;1.20;;;21.90;63.30;;;;;;5121990;27;44258;-59
2022/07/04 10:44:07;;;;;;;1.30;0.90;;;21.90;64.00;;;;;;5124029;27;43826;-60
2022/07/04 10:46:51;;;;;;;1.30;1.20;;;21.90;63.30;;;;;;5123109;27;43412;-60
2022/07/04 10:49:21;;;;;;;1.70;1.60;;;21.90;63.20;;;;;;5123522;27;43449;-60
2022/07/04 10:51:50;;;;;;;1.33;1.23;;;21.90;63.30;;;;;;5121268;27;43626;-60
2022/07/04 10:54:22;;;;;;;1.67;1.17;;;21.90;63.30;;;;;;5122719;27;45163;-60
2022/07/04 10:56:56;;;;;;;1.38;1.23;;;21.90;63.20;;;;;;5122479;27;43586;-60
2022/07/04 10:59:27;;;;;;;0.98;0.90;;;21.90;63.10;;;;;;5122624;27;43360;-60
2022/07/04 11:02:07;;;;;;;1.47;1.20;;;21.90;63.00;;;;;;5122193;27;43476;-60
2022/07/04 11:05:03;;;;;;;1.15;1.05;;;22.00;63.20;;;;;;5121374;27;43765;-60
2022/07/04 11:07:37;;;;;;;2.58;1.30;;;22.00;63.20;;;;;;5120623;27;43443;-60
2022/07/04 11:10:16;;;;;;;1.35;1.10;;;22.00;63.20;;;;;;5122603;27;43400;-60
2022/07/04 11:12:59;;;;;;;1.40;1.13;;;22.00;63.30;;;;;;5121846;27;43543;-60
2022/07/04 11:15:32;;;;;;;2.58;1.35;;;22.00;63.20;;;;;;5122022;27;43833;-60
2022/07/04 11:18:11;;;;;;;2.20;1.30;;;22.00;63.10;;;;;;5122333;27;43594;-61
2022/07/04 11:20:46;;;;;;;1.73;1.33;;;22.00;63.20;;;;;;5121737;27;43497;-60
2022/07/04 11:23:16;;;;;;;1.77;1.25;;;22.10;63.30;;;;;;5115344;27;43938;-60
2022/07/04 11:25:45;;;;;;;1.98;1.40;;;22.10;63.30;;;;;;5121950;27;43667;-60
2022/07/04 11:28:23;;;;;;;1.83;1.50;;;22.10;63.30;;;;;;5115312;27;43484;-61
2022/07/04 11:31:11;;;;;;;1.27;1.17;;;22.10;63.10;;;;;;5120887;27;43496;-61
2022/07/04 11:33:41;;;;;;;1.00;1.00;;;22.10;63.80;;;;;;5120042;27;43599;-61
2022/07/04 11:36:20;;;;;;;1.52;1.33;;;22.10;63.10;;;;;;5122130;27;43814;-61
2022/07/04 11:38:54;;;;;;;1.83;1.27;;;22.10;63.10;;;;;;5119309;27;44075;-61
2022/07/04 11:47:31;;;;;;;1.20;1.10;;;22.10;63.10;;;;;;5116153;27;45068;-61
2022/07/04 11:49:59;;;;;;;1.30;1.10;;;22.20;63.30;;;;;;5121681;27;43418;-61
2022/07/04 11:52:28;;;;;;;2.10;1.20;;;22.20;63.20;;;;;;5118541;27;43484;-61
2022/07/04 11:55:17;;;;;;;0.90;0.90;;;22.20;63.20;;;;;;5121290;27;43449;-61
2022/07/04 11:57:54;;;;;;;1.30;1.05;;;22.30;63.20;;;;;;5126574;27;44451;-61
2022/07/04 12:00:27;;;;;;;2.75;1.20;;;22.40;63.20;;;;;;5121638;27;43370;-59
2022/07/04 12:02:59;;;;;;;3.13;1.13;;;22.40;63.00;;;;;;5120801;27;43363;-60
2022/07/04 12:05:27;;;;;;;3.28;1.05;;;22.40;62.90;;;;;;5121506;27;43421;-60
2022/07/04 12:07:55;;;;;;;1.67;1.30;;;22.40;62.90;;;;;;5119763;27;45245;-59
2022/07/04 12:10:42;;;;;;;2.08;1.10;;;22.40;63.00;;;;;;5109611;27;43368;-59
2022/07/04 12:13:16;;;;;;;1.58;1.30;;;22.40;62.90;;;;;;5120575;27;43531;-59
2022/07/04 12:15:49;;;;;;;1.20;1.10;;;22.40;62.90;;;;;;5120208;27;43610;-60
2022/07/04 12:18:30;;;;;;;1.38;1.10;;;22.50;62.90;;;;;;5121759;27;44976;-60
2022/07/04 12:21:17;;;;;;;3.35;1.20;;;22.50;63.00;;;;;;5115013;27;44079;-61
2022/07/04 12:23:52;;;;;;;5.38;1.10;;;22.50;63.00;;;;;;5116232;27;43499;-61
2022/07/04 12:26:46;;;;;;;1.47;1.10;;;22.50;62.80;;;;;;5118838;27;43683;-60
2022/07/04 12:29:24;;;;;;;1.63;1.25;;;22.50;62.80;;;;;;5120310;27;44667;-60
2022/07/04 12:31:58;;;;;;;1.08;1.05;;;22.50;62.80;;;;;;5118038;27;43413;-60
2022/07/04 12:34:25;;;;;;;1.92;1.00;;;22.50;62.80;;;;;;5121462;27;43436;-59
2022/07/04 12:36:56;;;;;;;2.05;1.05;;;22.50;62.90;;;;;;5121279;27;43487;-63
2022/07/04 12:39:30;;;;;;;1.10;1.00;;;22.50;63.00;;;;;;5121041;27;44223;-63
2022/07/04 12:42:17;;;;;;;1.45;1.17;;;22.60;62.70;;;;;;5119784;27;43381;-62
2022/07/04 12:44:45;;;;;;;0.80;0.80;;;22.60;62.60;;;;;;5122009;27;43386;-62
2022/07/04 12:47:13;;;;;;;0.90;0.90;;;22.60;62.70;;;;;;5124870;27;43658;-62
2022/07/04 12:49:49;;;;;;;1.83;1.10;;;22.60;62.60;;;;;;5123992;27;44707;-63
2022/07/04 12:52:18;;;;;;;2.38;0.93;;;22.60;62.60;;;;;;5124273;27;43547;-63
2022/07/04 12:55:03;;;;;;;1.20;1.10;;;22.60;62.60;;;;;;5124927;27;43392;-62
2022/07/04 12:57:31;;;;;;;1.15;1.08;;;22.70;62.50;;;;;;5119638;27;43496;-63
2022/07/04 12:59:58;;;;;;;1.85;1.20;;;22.70;62.50;;;;;;5121727;27;44784;-62
2022/07/04 13:02:45;;;;;;;1.00;0.95;;;22.70;62.50;;;;;;5124887;27;43897;-62
2022/07/04 13:05:13;;;;;;;1.08;0.98;;;22.70;62.40;;;;;;5123585;27;43466;-63
2022/07/04 13:07:41;;;;;;;1.15;1.05;;;22.70;62.40;;;;;;5123039;27;43702;-63
2022/07/04 13:10:08;;;;;;;1.65;0.93;;;22.70;62.30;;;;;;5124765;27;43798;-62
2022/07/04 13:12:35;;;;;;;1.75;1.17;;;22.70;62.40;;;;;;5123792;27;44016;-62
2022/07/04 13:15:05;;;;;;;1.13;1.00;;;22.70;62.40;;;;;;5122194;27;43424;-63
2022/07/04 13:17:32;;;;;;;0.80;0.80;;;22.70;62.40;;;;;;5124702;27;43559;-63